Time;durP1;ratioP1;P1;durP2;ratioP2;P2;SDS_P1;SDS_P2;PMS_P1;PMS_P2;Temp;Humidity;BMP_temperature;BMP_pressure;BME280_temperature;BME280_humidity;BME280_pressure;Samples;Min_cycle;Max_cycle;Signal;HPM_P1;HPM_P2
2023/03/01 00:00:18;;;;;;;34.20;21.77;;;;;;;14.53;100.00;101089.00;2096781;28;20154;-84
2023/03/01 00:01:39;;;;;;;36.20;20.67;;;;;;;14.43;100.00;101085.44;2094422;28;20037;-84
2023/03/01 00:03:02;;;;;;;30.15;19.95;;;;;;;14.36;100.00;101086.22;2098076;28;20044;-83
2023/03/01 00:04:24;;;;;;;26.75;17.92;;;;;;;14.33;100.00;101087.09;2088245;28;20370;-84
2023/03/01 00:05:46;;;;;;;32.08;19.15;;;;;;;14.31;100.00;101085.28;2092348;28;20036;-83
2023/03/01 00:07:09;;;;;;;62.30;31.35;;;;;;;14.28;100.00;101083.53;2089682;28;20041;-84
2023/03/01 00:08:30;;;;;;;44.35;23.17;;;;;;;14.26;100.00;101081.72;2087174;28;20580;-84
2023/03/01 00:09:53;;;;;;;37.45;21.58;;;;;;;14.26;100.00;101084.38;2087295;28;20080;-85
2023/03/01 00:11:17;;;;;;;29.67;18.70;;;;;;;14.28;100.00;101082.66;2089856;28;20051;-84
2023/03/01 00:12:39;;;;;;;31.63;17.13;;;;;;;14.32;100.00;101074.69;2083536;28;20056;-85
2023/03/01 00:14:01;;;;;;;32.10;15.77;;;;;;;14.35;100.00;101077.38;2087252;28;20045;-84
2023/03/01 00:15:25;;;;;;;29.25;17.35;;;;;;;14.42;100.00;101080.09;2095654;28;20040;-83
2023/03/01 00:16:47;;;;;;;28.35;18.48;;;;;;;14.46;100.00;101076.56;2086328;28;20188;-84
2023/03/01 00:18:09;;;;;;;24.33;13.50;;;;;;;14.51;100.00;101075.69;2087515;28;20041;-84
2023/03/01 00:19:32;;;;;;;22.95;13.40;;;;;;;14.63;100.00;101075.78;2078879;28;20480;-85
2023/03/01 00:20:55;;;;;;;22.08;11.27;;;;;;;14.78;100.00;101064.28;2084387;28;20037;-83
2023/03/01 00:22:17;;;;;;;16.52;10.77;;;;;;;14.95;100.00;101061.69;2092265;28;20047;-83
2023/03/01 00:23:39;;;;;;;21.25;10.60;;;;;;;15.13;100.00;101062.63;2095217;28;20041;-83
2023/03/01 00:25:01;;;;;;;26.05;10.65;;;;;;;15.29;100.00;101060.00;2084655;28;20045;-83
2023/03/01 00:26:25;;;;;;;25.25;10.82;;;;;;;15.47;98.11;101060.88;2084278;28;20425;-83
2023/03/01 00:27:48;;;;;;;21.05;11.20;;;;;;;15.60;95.96;101053.81;2093940;28;20048;-83
2023/03/01 00:29:09;;;;;;;22.08;11.38;;;;;;;15.73;92.74;101060.91;2095021;28;20440;-84
2023/03/01 00:30:34;;;;;;;26.70;11.30;;;;;;;15.85;91.10;101055.56;2095241;28;20044;-83
2023/03/01 00:31:56;;;;;;;19.33;10.13;;;;;;;15.92;88.83;101052.00;2095304;28;20044;-84
2023/03/01 00:33:18;;;;;;;21.08;11.05;;;;;;;16.03;86.83;101036.00;2089418;28;20049;-83
2023/03/01 00:34:40;;;;;;;20.15;11.40;;;;;;;16.14;84.97;101041.31;2091612;28;20048;-84
2023/03/01 00:36:03;;;;;;;19.02;10.18;;;;;;;16.22;83.14;101042.16;2094967;28;20067;-84
2023/03/01 00:37:26;;;;;;;17.02;10.60;;;;;;;16.29;81.90;101034.16;2094134;28;20086;-83
2023/03/01 00:38:47;;;;;;;21.08;10.43;;;;;;;16.37;80.38;101034.13;2086813;28;20045;-82
2023/03/01 00:40:11;;;;;;;20.40;11.40;;;;;;;16.43;78.41;101033.22;2083754;28;20532;-83
2023/03/01 00:41:34;;;;;;;21.63;10.05;;;;;;;16.50;77.40;101027.84;2093004;28;20496;-83
2023/03/01 00:42:56;;;;;;;21.85;10.88;;;;;;;16.56;76.68;101022.50;2095385;28;20067;-82
2023/03/01 00:44:19;;;;;;;17.23;9.93;;;;;;;16.60;75.12;101026.97;2086568;28;20516;-82
2023/03/01 00:45:41;;;;;;;19.73;10.40;;;;;;;16.64;74.13;101011.84;2095053;28;20044;-82
2023/03/01 00:47:04;;;;;;;15.65;10.05;;;;;;;16.67;73.87;101028.69;2086667;28;20045;-83
2023/03/01 00:48:26;;;;;;;17.10;10.85;;;;;;;16.69;73.51;101018.91;2092522;28;20091;-82
2023/03/01 00:49:49;;;;;;;27.55;10.25;;;;;;;16.70;73.28;101027.81;2087014;28;20095;-84
2023/03/01 00:51:13;;;;;;;16.85;9.02;;;;;;;16.71;73.31;101034.91;2094007;28;20069;-84
2023/03/01 00:52:35;;;;;;;20.92;10.50;;;;;;;16.71;73.08;101019.81;2095402;28;20052;-84
2023/03/01 00:53:59;;;;;;;22.73;11.48;;;;;;;16.73;71.91;101023.34;2094729;28;20036;-85
2023/03/01 00:55:21;;;;;;;20.83;9.93;;;;;;;16.76;71.13;101022.44;2091907;28;20047;-83
2023/03/01 00:56:43;;;;;;;24.70;10.50;;;;;;;16.78;70.60;101019.75;2089176;28;20037;-84
2023/03/01 00:58:05;;;;;;;23.55;10.25;;;;;;;16.78;69.88;101019.75;2093715;28;20056;-84
2023/03/01 00:59:27;;;;;;;16.25;9.82;;;;;;;16.81;68.91;101014.41;2086697;28;20203;-86
2023/03/01 01:00:50;;;;;;;18.25;9.82;;;;;;;16.87;67.64;101014.38;2094930;28;20045;-85
2023/03/01 01:02:12;;;;;;;17.70;11.18;;;;;;;16.92;66.33;101012.56;2088464;28;20041;-85
2023/03/01 01:03:33;;;;;;;18.23;10.23;;;;;;;16.97;64.81;101008.09;2089178;28;20079;-86
2023/03/01 01:04:56;;;;;;;16.85;9.90;;;;;;;17.01;64.15;101009.81;2091215;28;20051;-85
2023/03/01 01:06:19;;;;;;;18.48;10.70;;;;;;;17.04;63.47;101009.81;2094487;28;20066;-85
2023/03/01 01:07:42;;;;;;;18.23;9.65;;;;;;;17.06;62.67;101011.59;2083935;28;20102;-84
2023/03/01 01:09:06;;;;;;;18.95;10.38;;;;;;;17.11;62.17;101011.56;2103336;28;20434;-84
2023/03/01 01:10:27;;;;;;;17.98;9.70;;;;;;;17.13;61.85;101018.63;2089534;28;20524;-84
2023/03/01 01:11:51;;;;;;;18.98;9.40;;;;;;;17.13;61.60;101013.28;2088048;28;20062;-83
2023/03/01 01:13:14;;;;;;;16.33;10.85;;;;;;;17.16;61.74;101016.84;2084536;28;20136;-83
2023/03/01 01:14:37;;;;;;;26.42;10.05;;;;;;;17.14;61.21;101019.50;2090381;28;20052;-82
2023/03/01 01:16:02;;;;;;;17.65;9.63;;;;;;;17.14;60.60;101020.41;2092742;28;20755;-82
2023/03/01 01:17:24;;;;;;;19.90;9.80;;;;;;;17.16;60.22;101017.72;2082755;28;20045;-82
2023/03/01 01:18:46;;;;;;;14.07;9.27;;;;;;;17.18;60.24;101020.41;2083990;28;20083;-82
2023/03/01 01:20:10;;;;;;;19.92;10.48;;;;;;;17.18;60.28;101015.06;2091106;28;20122;-82
2023/03/01 01:21:32;;;;;;;18.58;10.38;;;;;;;17.17;60.16;101019.50;2093994;28;20048;-82
2023/03/01 01:22:54;;;;;;;17.52;10.00;;;;;;;17.18;59.86;101020.41;2089422;28;20056;-82
2023/03/01 01:24:17;;;;;;;19.23;10.10;;;;;;;17.17;59.99;101016.84;2083464;28;20052;-82
2023/03/01 01:25:38;;;;;;;18.73;10.77;;;;;;;17.18;59.65;101015.94;2086420;28;20045;-82
2023/03/01 01:27:01;;;;;;;18.55;9.63;;;;;;;17.19;59.21;101023.06;2094078;28;20544;-83
2023/03/01 01:28:22;;;;;;;21.02;11.25;;;;;;;17.21;58.53;101015.91;2096421;28;20135;-82
2023/03/01 01:29:44;;;;;;;20.20;10.70;;;;;;;17.23;58.23;101016.78;2094434;28;20102;-84
2023/03/01 01:31:08;;;;;;;17.30;10.15;;;;;;;17.26;58.04;101014.13;2093522;28;20061;-82
2023/03/01 01:32:30;;;;;;;22.00;10.20;;;;;;;17.27;57.99;101012.31;2080509;28;20037;-83
2023/03/01 01:33:53;;;;;;;21.10;9.85;;;;;;;17.29;58.07;101018.53;2085461;28;20056;-85
2023/03/01 01:35:15;;;;;;;19.05;9.30;;;;;;;17.28;57.98;101022.97;2083154;28;20045;-86
2023/03/01 01:36:37;;;;;;;22.23;10.50;;;;;;;17.28;57.94;101024.75;2091917;28;20516;-85
2023/03/01 01:37:59;;;;;;;22.98;10.48;;;;;;;17.28;58.19;101019.41;2085284;28;20604;-85
2023/03/01 01:39:21;;;;;;;16.52;10.02;;;;;;;17.26;58.00;101014.13;2082833;28;20067;-85
2023/03/01 01:40:46;;;;;;;20.13;10.73;;;;;;;17.26;58.10;101030.13;2082623;28;20041;-85
2023/03/01 01:42:16;;;;;;;19.70;10.00;;;;;;;17.25;58.08;101022.13;2091103;28;20044;-85
2023/03/01 01:43:40;;;;;;;15.55;9.95;;;;;;;17.25;58.28;101016.78;2095679;28;20055;-86
2023/03/01 01:45:27;;;;;;;18.52;10.15;;;;;;;17.23;58.28;101019.47;2088117;28;20664;-85
2023/03/01 01:46:54;;;;;;;23.42;11.90;;;;;;;17.22;58.51;101019.47;2096254;28;20045;-86
2023/03/01 01:48:20;;;;;;;22.33;11.40;;;;;;;17.19;58.50;101022.16;2103597;28;20056;-85
2023/03/01 01:49:46;;;;;;;19.95;10.65;;;;;;;17.16;58.79;101017.72;2103200;28;20435;-85
2023/03/01 01:51:19;;;;;;;20.05;10.98;;;;;;;17.13;58.88;101023.09;2094916;28;20825;-86
2023/03/01 01:52:42;;;;;;;16.25;10.15;;;;;;;17.07;59.49;101017.78;2088559;28;20164;-86
2023/03/01 01:54:07;;;;;;;25.08;11.80;;;;;;;17.02;59.88;101022.28;2086364;28;20053;-84
2023/03/01 01:55:29;;;;;;;19.85;10.65;;;;;;;16.97;60.16;101021.41;2096458;28;20044;-85
2023/03/01 01:56:55;;;;;;;22.15;11.50;;;;;;;16.96;59.95;101025.88;2089126;28;20049;-84
2023/03/01 01:58:20;;;;;;;17.75;10.70;;;;;;;16.96;59.71;101009.88;2083233;28;20136;-84
2023/03/01 01:59:45;;;;;;;19.08;11.05;;;;;;;16.97;59.35;101019.66;2088845;28;20139;-84
2023/03/01 02:01:08;;;;;;;22.95;11.52;;;;;;;16.99;59.13;101024.97;2093889;28;20169;-84
2023/03/01 02:02:33;;;;;;;23.40;11.65;;;;;;;16.99;59.10;101019.66;2086204;28;20570;-84
2023/03/01 02:03:55;;;;;;;25.77;10.57;;;;;;;16.97;59.02;101019.66;2082715;28;20140;-84
2023/03/01 02:05:27;;;;;;;21.77;10.93;;;;;;;16.94;58.96;101029.44;2090777;28;20131;-84
2023/03/01 02:06:55;;;;;;;19.27;10.07;;;;;;;16.93;58.65;101015.25;2095791;28;20083;-85
2023/03/01 02:08:19;;;;;;;20.77;10.18;;;;;;;16.95;58.27;101025.88;2086767;28;20057;-84
2023/03/01 02:09:43;;;;;;;19.55;10.88;;;;;;;16.96;58.04;101019.66;2092088;28;20052;-84
2023/03/01 02:11:05;;;;;;;15.82;10.90;;;;;;;16.97;57.52;101022.31;2093859;28;20068;-85
2023/03/01 02:12:28;;;;;;;20.70;10.45;;;;;;;16.98;57.34;101018.75;2093492;28;20045;-84
2023/03/01 02:13:50;;;;;;;18.95;10.30;;;;;;;17.03;56.60;101022.28;2098398;28;20048;-85
2023/03/01 02:15:12;;;;;;;21.00;11.85;;;;;;;17.06;56.35;101022.25;2085651;28;20056;-85
2023/03/01 02:16:34;;;;;;;20.40;10.52;;;;;;;17.05;56.39;101020.50;2096649;28;20036;-85
2023/03/01 02:17:58;;;;;;;21.17;9.70;;;;;;;17.06;56.12;101008.03;2080479;28;20043;-85
2023/03/01 02:19:29;;;;;;;18.77;10.38;;;;;;;17.03;56.24;101019.59;2082280;28;20059;-85
2023/03/01 02:21:06;;;;;;;19.27;10.27;;;;;;;16.96;57.97;101019.66;2094075;28;20610;-85
2023/03/01 02:22:30;;;;;;;21.27;10.35;;;;;;;16.87;60.27;101028.56;2096858;28;20556;-86
2023/03/01 02:23:53;;;;;;;21.65;10.80;;;;;;;16.82;62.60;101019.72;2094671;28;20572;-86
2023/03/01 02:25:26;;;;;;;21.52;10.90;;;;;;;16.76;65.45;101017.09;2086293;28;20056;-85
2023/03/01 02:26:53;;;;;;;22.13;10.75;;;;;;;16.69;67.32;101018.91;2095744;28;20441;-86
2023/03/01 02:28:36;;;;;;;20.30;10.77;;;;;;;16.62;70.29;101017.16;2088620;28;20061;-86
2023/03/01 02:29:57;;;;;;;23.13;10.27;;;;;;;16.57;71.45;101012.72;2097137;28;20099;-86
2023/03/01 02:33:04;;;;;;;21.65;9.65;;;;;;;16.56;70.30;101019.84;2088571;28;20122;-87
2023/03/01 02:34:26;;;;;;;17.90;10.35;;;;;;;16.53;70.53;101017.19;2095291;28;20458;-86
2023/03/01 02:35:50;;;;;;;17.73;10.02;;;;;;;16.47;72.75;101014.56;2088138;28;20041;-86
2023/03/01 02:37:20;;;;;;;21.58;10.40;;;;;;;16.46;74.24;101017.22;2086237;28;20321;-86
2023/03/01 02:38:42;;;;;;;18.92;11.07;;;;;;;16.42;76.36;101011.00;2093106;28;20071;-87
2023/03/01 02:40:11;;;;;;;24.50;10.85;;;;;;;16.39;78.44;101016.38;2086272;28;20041;-86
2023/03/01 02:41:37;;;;;;;23.70;11.13;;;;;;;16.33;80.37;101016.41;2086638;28;20087;-86
2023/03/01 02:43:00;;;;;;;21.70;11.40;;;;;;;16.31;81.74;101020.84;2095037;28;20040;-87
2023/03/01 02:44:24;;;;;;;18.27;11.50;;;;;;;16.29;83.30;101007.50;2088961;28;20040;-87
2023/03/01 02:45:49;;;;;;;18.10;11.05;;;;;;;16.24;84.83;101011.09;2077661;28;20112;-87
2023/03/01 02:47:12;;;;;;;21.48;11.45;;;;;;;16.14;86.16;101009.38;2084144;28;20510;-87
2023/03/01 02:48:45;;;;;;;19.80;11.10;;;;;;;16.13;86.42;101010.25;2100008;28;20055;-88
2023/03/01 02:50:24;;;;;;;21.45;11.90;;;;;;;16.09;87.75;101003.13;2087152;28;20064;-87
2023/03/01 02:51:54;;;;;;;22.00;12.10;;;;;;;16.01;89.17;101000.53;2088380;28;20147;-86
2023/03/01 02:53:23;;;;;;;24.35;13.13;;;;;;;16.00;90.28;101009.41;2091205;28;20063;-86
2023/03/01 02:54:50;;;;;;;17.30;11.80;;;;;;;15.92;91.52;101001.44;2079795;28;20042;-88
2023/03/01 02:56:13;;;;;;;23.25;12.32;;;;;;;15.85;92.40;101006.75;2086544;28;20070;-87
2023/03/01 02:57:40;;;;;;;20.90;10.75;;;;;;;15.79;93.30;100997.03;2085280;28;20087;-87
2023/03/01 02:59:03;;;;;;;20.30;12.20;;;;;;;15.75;93.86;101008.53;2078084;28;20056;-87
2023/03/01 03:00:32;;;;;;;19.13;12.35;;;;;;;15.70;94.56;101007.66;2075422;28;20136;-87
2023/03/01 03:01:54;;;;;;;22.65;12.63;;;;;;;15.66;95.10;101016.56;2090787;28;20076;-86
2023/03/01 03:03:18;;;;;;;26.00;13.73;;;;;;;15.64;95.45;101018.31;2091361;28;20052;-87
2023/03/01 03:04:39;;;;;;;25.02;12.57;;;;;;;15.61;95.48;101015.69;2091888;28;20040;-87
2023/03/01 03:06:01;;;;;;;19.70;12.38;;;;;;;15.58;95.44;101017.44;2085526;28;20076;-83
2023/03/01 03:07:24;;;;;;;21.75;13.15;;;;;;;15.53;95.08;101012.13;2092181;28;20048;-83
2023/03/01 03:08:47;;;;;;;21.83;11.63;;;;;;;15.48;94.29;101014.78;2100882;28;20054;-84
2023/03/01 03:10:12;;;;;;;19.63;13.18;;;;;;;15.49;93.04;101018.31;2077423;28;20057;-85
2023/03/01 03:11:36;;;;;;;23.85;12.30;;;;;;;15.45;91.46;101027.19;2089987;28;20048;-85
2023/03/01 03:13:00;;;;;;;20.38;11.52;;;;;;;15.39;90.18;101014.75;2094022;28;20131;-83
2023/03/01 03:14:22;;;;;;;21.17;11.68;;;;;;;15.43;87.36;101023.63;2085324;28;20619;-84
2023/03/01 03:15:46;;;;;;;22.52;13.13;;;;;;;15.50;83.76;101015.63;2082891;28;20060;-84
2023/03/01 03:17:07;;;;;;;19.08;10.27;;;;;;;15.59;80.98;101019.22;2089659;28;20120;-84
2023/03/01 03:18:30;;;;;;;18.13;9.93;;;;;;;15.67;78.53;101012.13;2081826;28;20600;-84
2023/03/01 03:19:51;;;;;;;18.60;10.50;;;;;;;15.75;75.25;101019.19;2084734;28;20432;-84
2023/03/01 03:21:14;;;;;;;19.85;10.50;;;;;;;15.83;73.24;101020.06;2090218;28;20045;-85
2023/03/01 03:22:36;;;;;;;15.30;10.15;;;;;;;15.90;72.65;101012.97;2085820;28;20529;-85
2023/03/01 03:23:58;;;;;;;20.58;10.52;;;;;;;15.91;72.29;101018.28;2091241;28;20044;-84
2023/03/01 03:25:20;;;;;;;26.25;12.50;;;;;;;15.92;73.39;101022.72;2085806;28;20045;-83
2023/03/01 03:26:43;;;;;;;19.02;11.20;;;;;;;15.88;76.33;101022.75;2090841;28;20052;-83
2023/03/01 03:28:09;;;;;;;20.08;10.60;;;;;;;15.86;76.71;101025.41;2087971;28;20564;-84
2023/03/01 03:29:30;;;;;;;18.77;10.48;;;;;;;15.85;75.45;101026.28;2090887;28;20041;-85
2023/03/01 03:30:54;;;;;;;15.77;9.45;;;;;;;15.88;73.49;101026.25;2100533;28;20040;-84
2023/03/01 03:32:16;;;;;;;18.73;10.13;;;;;;;16.00;69.74;101025.38;2088484;28;20413;-85
2023/03/01 03:33:38;;;;;;;17.67;9.60;;;;;;;16.21;65.49;101024.44;2090251;28;20586;-83
2023/03/01 03:35:01;;;;;;;22.30;10.43;;;;;;;16.35;64.00;101025.25;2094316;28;20362;-84
2023/03/01 03:36:26;;;;;;;16.58;8.55;;;;;;;16.46;61.96;101023.44;2094319;28;20452;-84
2023/03/01 03:38:02;;;;;;;20.13;9.50;;;;;;;16.53;60.34;101019.88;2092571;28;20045;-82
2023/03/01 03:39:25;;;;;;;19.60;10.48;;;;;;;16.61;58.93;101028.72;2087756;28;20064;-86
2023/03/01 03:40:48;;;;;;;18.40;9.50;;;;;;;16.67;57.73;101017.16;2093181;28;20052;-82
2023/03/01 03:42:11;;;;;;;20.55;10.45;;;;;;;16.73;56.87;101026.03;2093355;28;20048;-82
2023/03/01 03:43:33;;;;;;;19.27;9.60;;;;;;;16.78;56.29;101028.66;2095632;28;20033;-84
2023/03/01 03:44:55;;;;;;;16.00;8.88;;;;;;;16.79;56.08;101029.53;2093343;28;20536;-84
2023/03/01 03:46:19;;;;;;;16.02;9.38;;;;;;;16.81;56.32;101031.28;2093689;28;20056;-84
2023/03/01 03:47:41;;;;;;;20.38;9.93;;;;;;;16.80;56.34;101031.31;2101445;28;20052;-84
2023/03/01 03:49:04;;;;;;;19.15;9.32;;;;;;;16.78;56.80;101033.97;2097747;28;20051;-82
2023/03/01 03:50:25;;;;;;;20.00;9.73;;;;;;;16.77;57.20;101025.97;2087146;28;20056;-84
2023/03/01 03:51:48;;;;;;;15.73;9.52;;;;;;;16.74;56.83;101033.09;2087129;28;20076;-84
2023/03/01 03:53:12;;;;;;;17.70;9.05;;;;;;;16.76;56.30;101027.75;2078892;28;20569;-84
2023/03/01 03:54:37;;;;;;;20.88;9.82;;;;;;;16.78;56.35;101022.44;2079352;28;20049;-83
2023/03/01 03:55:58;;;;;;;18.00;9.68;;;;;;;16.74;56.57;101027.75;2099293;28;20040;-84
2023/03/01 03:57:21;;;;;;;17.27;9.40;;;;;;;16.73;56.65;101034.03;2097855;28;20046;-83
2023/03/01 03:58:42;;;;;;;21.88;10.85;;;;;;;16.71;57.04;101041.13;2085751;28;20048;-85
2023/03/01 04:00:12;;;;;;;17.05;9.18;;;;;;;16.69;57.15;101040.25;2091731;28;20053;-83
2023/03/01 04:01:35;;;;;;;18.13;9.88;;;;;;;16.68;56.93;101042.91;2101440;28;20048;-83
2023/03/01 04:02:57;;;;;;;18.40;9.85;;;;;;;16.67;57.05;101046.50;2099379;28;20040;-84
2023/03/01 04:04:19;;;;;;;19.67;9.48;;;;;;;16.65;57.39;101042.94;2096881;28;20508;-84
2023/03/01 04:05:41;;;;;;;15.98;9.10;;;;;;;16.64;57.21;101046.50;2094442;28;20041;-86
2023/03/01 04:07:03;;;;;;;19.73;10.07;;;;;;;16.61;57.20;101054.50;2095621;28;20052;-82
2023/03/01 04:08:25;;;;;;;18.98;10.05;;;;;;;16.57;57.64;101056.25;2103846;28;20074;-82
2023/03/01 04:09:47;;;;;;;24.15;12.57;;;;;;;16.54;57.92;101055.41;2096558;28;20098;-84
2023/03/01 04:11:28;;;;;;;20.30;11.50;;;;;;;16.49;59.28;101052.72;2095329;28;20102;-83
2023/03/01 04:12:49;;;;;;;24.05;13.48;;;;;;;16.39;60.70;101064.34;2097467;28;20056;-84
2023/03/01 04:14:11;;;;;;;22.90;11.35;;;;;;;16.33;62.17;101059.03;2094418;28;20429;-84
2023/03/01 04:15:34;;;;;;;28.35;11.88;;;;;;;16.26;63.14;101060.81;2089068;28;20454;-84
2023/03/01 04:16:57;;;;;;;25.65;12.43;;;;;;;16.20;64.05;101060.84;2084461;28;20048;-84
2023/03/01 04:18:21;;;;;;;22.48;11.30;;;;;;;16.15;64.70;101064.38;2094300;28;20098;-83
2023/03/01 04:19:43;;;;;;;21.70;11.57;;;;;;;16.08;65.57;101073.31;2095138;28;20044;-84
2023/03/01 04:21:05;;;;;;;18.50;11.68;;;;;;;16.01;66.25;101060.88;2094762;28;20148;-83
2023/03/01 04:22:29;;;;;;;15.40;10.15;;;;;;;15.98;66.61;101076.84;2088637;28;20128;-82
2023/03/01 04:23:52;;;;;;;23.70;12.63;;;;;;;15.95;66.26;101073.28;2085807;28;20512;-82
2023/03/01 04:25:14;;;;;;;22.02;11.90;;;;;;;15.93;66.35;101068.88;2083497;28;20084;-82
2023/03/01 04:26:36;;;;;;;;;;;;;;;15.80;66.65;101072.44;2091607;28;20067;-82
2023/03/01 04:27:57;;;;;;;23.63;10.70;;;;;;;15.79;66.97;101079.53;2097625;28;19946;-83
2023/03/01 04:29:19;;;;;;;16.73;9.35;;;;;;;15.80;66.66;101083.09;2092604;28;20436;-85
2023/03/01 04:30:45;;;;;;;16.90;9.52;;;;;;;15.80;66.49;101078.66;2090268;28;20508;-81
2023/03/01 04:32:08;;;;;;;18.33;9.68;;;;;;;15.82;66.18;101082.19;2086079;28;20052;-81
2023/03/01 04:33:29;;;;;;;18.27;10.65;;;;;;;15.84;66.08;101091.06;2095200;28;20104;-81
2023/03/01 04:34:52;;;;;;;14.55;10.07;;;;;;;15.83;66.32;101091.94;2096572;28;20048;-82
2023/03/01 04:36:15;;;;;;;17.52;9.30;;;;;;;15.83;66.42;101096.38;2091129;28;20765;-82
2023/03/01 04:37:38;;;;;;;17.13;10.30;;;;;;;15.82;66.56;101095.50;2090841;28;20044;-82
2023/03/01 04:39:11;;;;;;;19.27;10.25;;;;;;;15.80;66.79;101085.75;2091926;28;20051;-82
2023/03/01 04:40:34;;;;;;;22.10;9.40;;;;;;;15.79;66.85;101091.97;2079936;28;20049;-82
2023/03/01 04:41:57;;;;;;;16.77;9.90;;;;;;;15.78;66.89;101091.06;2092817;28;20037;-85
2023/03/01 04:43:18;;;;;;;18.00;9.45;;;;;;;15.75;67.22;101091.06;2089472;28;20531;-82
2023/03/01 04:44:40;;;;;;;15.73;9.45;;;;;;;15.73;67.69;101094.63;2094414;28;20041;-84
2023/03/01 04:46:03;;;;;;;16.20;10.10;;;;;;;15.71;67.81;101089.28;2097123;28;20385;-85
2023/03/01 04:47:27;;;;;;;18.50;9.63;;;;;;;15.68;67.51;101086.66;2093719;28;20036;-81
2023/03/01 04:48:50;;;;;;;20.50;9.75;;;;;;;15.66;67.94;101091.09;2094829;28;20052;-83
2023/03/01 04:50:13;;;;;;;17.25;9.57;;;;;;;15.64;68.96;101091.97;2089743;28;20049;-84
2023/03/01 04:51:36;;;;;;;20.08;10.02;;;;;;;15.59;69.22;101091.06;2094615;28;20598;-83
2023/03/01 04:52:58;;;;;;;22.65;8.73;;;;;;;15.58;69.46;101091.97;2093392;28;20040;-83
2023/03/01 04:54:20;;;;;;;18.50;10.20;;;;;;;15.57;69.83;101082.19;2101764;28;20051;-83
2023/03/01 04:55:41;;;;;;;16.73;9.55;;;;;;;15.56;70.30;101083.97;2092971;28;20078;-83
2023/03/01 04:57:05;;;;;;;15.98;9.55;;;;;;;15.54;71.07;101086.66;2086441;28;20545;-83
2023/03/01 04:58:28;;;;;;;21.42;10.80;;;;;;;15.53;72.36;101087.53;2092556;28;20501;-83
2023/03/01 04:59:49;;;;;;;16.38;10.20;;;;;;;15.52;73.30;101092.81;2094483;28;20614;-83
2023/03/01 05:01:15;;;;;;;20.42;9.95;;;;;;;15.49;73.97;101091.03;2086043;28;20048;-83
2023/03/01 05:02:38;;;;;;;21.42;10.70;;;;;;;15.42;75.75;101091.03;2091725;28;20054;-84
2023/03/01 05:04:05;;;;;;;20.35;10.63;;;;;;;15.31;77.71;101090.13;2093707;28;20045;-83
2023/03/01 05:05:28;;;;;;;23.58;10.70;;;;;;;15.23;79.19;101090.09;2097308;28;20122;-83
2023/03/01 05:06:51;;;;;;;16.73;10.38;;;;;;;15.21;80.00;101091.00;2086930;28;20147;-83
2023/03/01 05:08:17;;;;;;;21.42;10.30;;;;;;;15.23;79.99;101086.59;2084175;28;20057;-84
2023/03/01 05:09:39;;;;;;;19.58;10.63;;;;;;;15.27;79.94;101096.34;2091764;28;20052;-83
2023/03/01 05:11:02;;;;;;;19.90;9.90;;;;;;;15.31;80.35;101093.66;2096232;28;20510;-84
2023/03/01 05:12:23;;;;;;;18.05;10.20;;;;;;;15.35;79.00;101091.91;2103244;28;20056;-84
2023/03/01 05:13:46;;;;;;;20.35;10.20;;;;;;;15.41;78.18;101094.59;2101519;28;20048;-84
2023/03/01 05:15:08;;;;;;;15.95;10.27;;;;;;;15.47;77.00;101100.81;2089311;28;20049;-84
2023/03/01 05:16:30;;;;;;;23.15;10.30;;;;;;;15.54;75.15;101099.06;2079260;28;20168;-83
2023/03/01 05:17:54;;;;;;;19.98;10.25;;;;;;;15.66;72.62;101100.84;2093345;28;20115;-82
2023/03/01 05:19:16;;;;;;;18.10;11.18;;;;;;;15.74;71.57;101110.59;2093888;28;20547;-82
2023/03/01 05:20:38;;;;;;;21.52;11.88;;;;;;;15.82;71.38;101108.81;2097472;28;20048;-84
2023/03/01 05:22:04;;;;;;;20.75;10.70;;;;;;;15.87;70.64;101109.72;2092154;28;20198;-82
2023/03/01 05:23:26;;;;;;;15.65;10.27;;;;;;;15.97;68.92;101117.69;2092510;28;20036;-84
2023/03/01 05:24:49;;;;;;;24.05;10.70;;;;;;;16.06;67.62;101115.91;2090032;28;20037;-84
2023/03/01 05:26:12;;;;;;;18.05;9.88;;;;;;;16.13;67.83;101116.78;2088843;28;20057;-84
2023/03/01 05:27:35;;;;;;;24.02;11.38;;;;;;;16.21;69.15;101121.19;2091824;28;20083;-85
2023/03/01 05:28:58;;;;;;;17.48;10.80;;;;;;;16.28;70.65;101122.06;2093434;28;20045;-84
2023/03/01 05:30:21;;;;;;;21.05;9.93;;;;;;;16.30;70.79;101115.88;2086288;28;20079;-84
2023/03/01 05:31:43;;;;;;;21.58;10.90;;;;;;;16.34;70.29;101122.09;2090844;28;20111;-84
2023/03/01 05:33:12;;;;;;;20.58;10.65;;;;;;;16.42;69.14;101125.59;2094580;28;20428;-83
2023/03/01 05:34:36;;;;;;;22.48;10.52;;;;;;;16.53;68.46;101126.47;2095474;28;20080;-82
2023/03/01 05:36:00;;;;;;;23.50;10.52;;;;;;;16.61;68.82;101123.78;2080343;28;20037;-82
2023/03/01 05:37:22;;;;;;;20.30;10.05;;;;;;;16.64;69.02;101131.78;2090379;28;20045;-83
2023/03/01 05:38:45;;;;;;;17.73;10.43;;;;;;;16.64;68.66;101132.69;2096413;28;20082;-83
2023/03/01 05:40:15;;;;;;;19.60;10.27;;;;;;;16.65;68.19;101129.13;2095053;28;20072;-83
2023/03/01 05:41:37;;;;;;;21.55;11.25;;;;;;;16.67;68.52;101126.47;2090807;28;20052;-84
2023/03/01 05:42:59;;;;;;;23.00;11.05;;;;;;;16.70;68.89;101131.78;2086134;28;20041;-83
2023/03/01 05:44:21;;;;;;;22.90;11.45;;;;;;;16.74;69.32;101137.06;2092286;28;20048;-84
2023/03/01 05:45:43;;;;;;;20.40;10.82;;;;;;;16.75;70.22;101137.97;2094637;28;20037;-84
2023/03/01 05:47:04;;;;;;;17.70;10.02;;;;;;;16.77;70.85;101138.84;2094454;28;20151;-83
2023/03/01 05:48:28;;;;;;;18.65;10.00;;;;;;;16.80;71.77;101140.66;2097482;28;20056;-84
2023/03/01 05:49:51;;;;;;;20.02;9.77;;;;;;;16.80;72.52;101130.88;2096175;28;20101;-84
2023/03/01 05:51:13;;;;;;;19.23;10.57;;;;;;;16.83;73.57;101135.28;2093255;28;20574;-84
2023/03/01 05:52:34;;;;;;;17.08;10.52;;;;;;;16.84;75.11;101143.28;2085346;28;20491;-84
2023/03/01 05:53:56;;;;;;;19.08;11.27;;;;;;;16.88;77.03;101145.03;2091057;28;20040;-84
2023/03/01 05:55:19;;;;;;;26.25;12.10;;;;;;;16.96;78.79;101150.34;2093302;28;20053;-84
2023/03/01 05:56:41;;;;;;;22.77;11.32;;;;;;;17.02;80.28;101150.31;2088401;28;20040;-84
2023/03/01 05:58:06;;;;;;;26.35;11.82;;;;;;;17.10;81.85;101151.16;2099889;28;20362;-84
2023/03/01 05:59:28;;;;;;;18.95;11.00;;;;;;;17.16;82.48;101145.78;2096639;28;20243;-84
2023/03/01 06:00:51;;;;;;;22.98;11.10;;;;;;;17.21;83.09;101149.31;2094428;28;20040;-84
2023/03/01 06:02:12;;;;;;;21.20;11.73;;;;;;;17.28;83.91;101153.72;2094108;28;20048;-85
2023/03/01 06:03:35;;;;;;;20.08;11.05;;;;;;;17.36;84.29;101154.56;2080377;28;20517;-84
2023/03/01 06:04:57;;;;;;;18.23;10.60;;;;;;;17.47;84.19;101159.84;2091057;28;20056;-84
2023/03/01 06:06:19;;;;;;;21.05;9.73;;;;;;;17.60;83.85;101163.31;2102546;28;20047;-81
2023/03/01 06:07:42;;;;;;;24.42;11.50;;;;;;;17.76;83.67;101165.03;2096927;28;20402;-82
2023/03/01 06:09:06;;;;;;;22.80;11.50;;;;;;;17.90;82.90;101168.50;2096277;28;20048;-85
2023/03/01 06:10:29;;;;;;;21.05;10.98;;;;;;;18.02;82.35;101171.06;2093861;28;20052;-83
2023/03/01 06:11:52;;;;;;;20.27;11.45;;;;;;;18.12;82.36;101175.41;2085756;28;20064;-84
2023/03/01 06:13:14;;;;;;;22.90;13.68;;;;;;;18.17;82.47;101173.59;2094253;28;20040;-83
2023/03/01 06:14:35;;;;;;;21.60;13.77;;;;;;;18.21;81.91;101174.44;2085525;28;20182;-84
2023/03/01 06:15:57;;;;;;;21.98;11.75;;;;;;;18.25;82.47;101177.06;2081725;28;20052;-84
2023/03/01 06:17:19;;;;;;;25.25;12.48;;;;;;;18.30;81.44;101179.72;2090923;28;20169;-82
2023/03/01 06:18:42;;;;;;;26.80;12.00;;;;;;;18.32;80.83;101178.78;2091672;28;20587;-84
2023/03/01 06:20:05;;;;;;;19.20;11.50;;;;;;;18.35;80.65;101188.56;2096026;28;20064;-83
2023/03/01 06:21:27;;;;;;;21.00;12.65;;;;;;;18.40;81.57;101192.09;2088270;28;20071;-84
2023/03/01 06:22:49;;;;;;;24.75;13.68;;;;;;;18.38;81.71;101183.19;2086059;28;20037;-84